createdAt,value
2023-01-19T00:00:35.252Z,41.50
2023-01-19T00:03:04.949Z,41.00
2023-01-19T00:05:33.835Z,44.25
2023-01-19T00:08:14.937Z,34.75
2023-01-19T00:10:47.689Z,50.75
2023-01-19T00:13:15.820Z,46.75
2023-01-19T00:15:43.123Z,45.50
2023-01-19T00:18:11.105Z,56.00
2023-01-19T00:20:39.057Z,61.00
2023-01-19T00:23:08.028Z,54.00
2023-01-19T00:25:35.519Z,49.25
2023-01-19T00:28:02.347Z,53.50
2023-01-19T00:30:29.631Z,55.00
2023-01-19T00:32:57.012Z,61.75
2023-01-19T00:35:23.905Z,53.00
2023-01-19T00:37:50.800Z,55.25
2023-01-19T00:40:17.991Z,44.00
2023-01-19T00:42:44.820Z,50.75
2023-01-19T00:45:20.289Z,46.00
2023-01-19T00:47:48.387Z,49.00
2023-01-19T00:50:16.859Z,52.00
2023-01-19T00:52:44.772Z,62.00
2023-01-19T00:55:14.569Z,51.25
2023-01-19T00:57:42.263Z,43.50
2023-01-19T01:00:13.527Z,40.50
2023-01-19T01:02:42.807Z,50.25
2023-01-19T01:05:11.059Z,34.25
2023-01-19T01:07:41.344Z,33.25
2023-01-19T01:10:10.842Z,46.50
2023-01-19T01:12:38.772Z,36.00
2023-01-19T01:15:08.245Z,46.25
2023-01-19T01:17:35.091Z,29.00
2023-01-19T01:20:02.073Z,36.50
2023-01-19T01:22:28.810Z,25.75
2023-01-19T01:24:55.600Z,25.00
2023-01-19T01:27:22.596Z,25.33
2023-01-19T01:29:49.360Z,30.67
2023-01-19T01:32:16.851Z,38.00
2023-01-19T01:34:44.017Z,27.00
2023-01-19T01:37:11.466Z,19.67
2023-01-19T01:39:38.267Z,16.00
2023-01-19T01:42:17.765Z,10.67
2023-01-19T01:44:53.986Z,13.33
2023-01-19T01:47:29.646Z,30.00
2023-01-19T01:50:17.743Z,36.00
2023-01-19T01:53:06.287Z,34.50
2023-01-19T01:55:39.295Z,28.67
2023-01-19T01:58:07.939Z,26.33
2023-01-19T02:00:54.829Z,39.00
2023-01-19T02:03:24.179Z,36.75
2023-01-19T02:05:53.633Z,35.00
2023-01-19T02:08:50.826Z,8.33
2023-01-19T02:11:36.684Z,15.67
2023-01-19T02:14:06.855Z,11.67
2023-01-19T02:16:35.032Z,5.00
2023-01-19T02:19:01.865Z,5.00
2023-01-19T02:21:54.952Z,5.00
2023-01-19T02:24:22.411Z,11.67
2023-01-19T02:26:50.217Z,9.00
2023-01-19T02:29:20.740Z,11.33
2023-01-19T02:31:47.834Z,10.33
2023-01-19T02:34:20.179Z,12.00
2023-01-19T02:37:02.161Z,8.00
2023-01-19T02:39:36.833Z,8.00
2023-01-19T02:42:09.806Z,4.00
2023-01-19T02:44:38.248Z,2.00
2023-01-19T02:47:05.544Z,3.00
2023-01-19T02:49:32.448Z,1.33
2023-01-19T02:52:01.139Z,4.67
2023-01-19T02:54:49.282Z,17.33
2023-01-19T02:57:27.974Z,23.00
2023-01-19T03:00:13.281Z,18.33
2023-01-19T03:02:43.741Z,8.67
2023-01-19T03:05:19.870Z,16.33
2023-01-19T03:08:05.380Z,3.00
2023-01-19T03:10:52.464Z,9.33
2023-01-19T03:13:30.062Z,4.67
2023-01-19T03:16:06.009Z,5.00
2023-01-19T03:18:35.653Z,3.67
2023-01-19T03:21:06.252Z,2.67
2023-01-19T03:23:36.541Z,4.00
2023-01-19T03:26:08.703Z,6.00
2023-01-19T03:28:39.036Z,6.33
2023-01-19T03:31:15.074Z,4.33
2023-01-19T03:33:47.453Z,2.33
2023-01-19T03:36:35.148Z,10.00
2023-01-19T03:39:04.087Z,5.00
2023-01-19T03:41:32.632Z,3.67
2023-01-19T03:44:00.199Z,1.67
2023-01-19T03:46:28.053Z,2.67
2023-01-19T03:48:55.351Z,1.67
2023-01-19T03:51:22.418Z,1.00
2023-01-19T03:53:50.187Z,3.00
2023-01-19T03:56:22.646Z,4.00
2023-01-19T03:58:49.802Z,3.00
2023-01-19T04:01:17.897Z,5.00
2023-01-19T04:03:44.777Z,6.00
2023-01-19T04:06:11.523Z,4.67
2023-01-19T04:08:38.285Z,3.33
2023-01-19T04:11:05.132Z,3.33
2023-01-19T04:13:31.993Z,4.00
2023-01-19T04:16:03.188Z,1.00
2023-01-19T04:18:33.695Z,2.00
2023-01-19T04:21:05.500Z,3.33
2023-01-19T04:23:32.661Z,2.33
2023-01-19T04:26:04.876Z,11.67
2023-01-19T04:28:32.745Z,30.33
2023-01-19T04:30:59.940Z,5.00
2023-01-19T04:33:28.344Z,2.00
2023-01-19T04:35:56.163Z,5.67
2023-01-19T04:38:26.603Z,13.33
2023-01-19T04:40:54.471Z,17.33
2023-01-19T04:43:21.809Z,15.67
2023-01-19T04:45:49.229Z,20.33
2023-01-19T04:48:18.446Z,14.33
2023-01-19T04:50:45.779Z,18.67
2023-01-19T04:53:13.810Z,9.00
2023-01-19T04:55:41.115Z,10.67
2023-01-19T04:58:08.128Z,13.33
2023-01-19T05:00:35.363Z,5.00
2023-01-19T05:03:03.026Z,8.00
2023-01-19T05:05:30.314Z,5.33
2023-01-19T05:07:57.035Z,11.00
2023-01-19T05:10:24.066Z,12.00
2023-01-19T05:12:51.412Z,8.67
2023-01-19T05:15:18.276Z,19.33
2023-01-19T05:17:45.502Z,30.25
2023-01-19T05:20:16.022Z,13.67
2023-01-19T05:22:43.864Z,7.00
2023-01-19T05:25:10.739Z,14.00
2023-01-19T05:27:38.086Z,57.75
2023-01-19T05:30:06.144Z,42.00
2023-01-19T05:32:33.107Z,39.00
2023-01-19T05:34:59.939Z,25.00
2023-01-19T05:37:26.836Z,37.25
2023-01-19T05:39:54.293Z,23.50
2023-01-19T05:42:21.547Z,36.50
2023-01-19T05:44:48.664Z,29.25
2023-01-19T05:47:15.599Z,46.00
2023-01-19T05:52:46.971Z,60.00
2023-01-19T05:55:15.527Z,58.25
2023-01-19T05:57:43.232Z,54.00
2023-01-19T06:00:10.887Z,58.75
2023-01-19T06:02:37.745Z,59.75
2023-01-19T06:05:04.871Z,56.00
2023-01-19T06:07:32.031Z,59.75
2023-01-19T06:09:58.981Z,58.25
2023-01-19T06:12:26.016Z,74.50
2023-01-19T06:14:52.898Z,60.50
2023-01-19T06:17:20.625Z,68.50
2023-01-19T06:19:47.359Z,82.75
2023-01-19T06:22:14.153Z,57.25
2023-01-19T06:24:40.994Z,66.00
2023-01-19T06:27:08.008Z,69.50
2023-01-19T06:29:34.823Z,60.25
2023-01-19T06:32:01.701Z,62.00
2023-01-19T06:34:29.077Z,57.75
2023-01-19T06:36:56.548Z,82.75
2023-01-19T06:39:23.634Z,58.25
2023-01-19T06:41:50.896Z,73.75
2023-01-19T06:44:17.686Z,96.00
2023-01-19T06:46:44.526Z,95.50
2023-01-19T06:49:11.234Z,133.25
2023-01-19T06:51:38.146Z,164.75
2023-01-19T06:54:05.699Z,52.75
2023-01-19T06:56:32.623Z,40.25
2023-01-19T06:58:59.432Z,61.00
2023-01-19T07:01:27.083Z,43.75
2023-01-19T07:03:54.588Z,103.25
2023-01-19T07:06:21.348Z,115.50
2023-01-19T07:08:48.229Z,122.25
2023-01-19T07:11:25.246Z,79.00
2023-01-19T07:13:57.661Z,119.75
2023-01-19T07:16:24.863Z,110.25
2023-01-19T07:18:51.641Z,148.75
2023-01-19T07:21:19.280Z,142.25
2023-01-19T07:23:51.376Z,139.25
2023-01-19T07:26:21.236Z,152.25
2023-01-19T07:28:49.008Z,177.00
2023-01-19T07:31:16.631Z,247.00
2023-01-19T07:33:43.724Z,138.50
2023-01-19T07:36:10.719Z,136.00
2023-01-19T07:38:37.547Z,146.25
2023-01-19T07:41:06.955Z,150.50
2023-01-19T07:43:34.405Z,128.00
2023-01-19T07:46:04.390Z,100.25
2023-01-19T07:48:31.570Z,224.25
2023-01-19T07:51:05.354Z,278.50
2023-01-19T07:53:32.832Z,206.00
2023-01-19T07:55:59.630Z,152.50
2023-01-19T07:58:26.942Z,124.75
2023-01-19T08:00:53.942Z,141.75
2023-01-19T08:03:20.850Z,111.00
2023-01-19T08:05:52.383Z,147.50
2023-01-19T08:08:20.357Z,124.50
2023-01-19T08:10:50.385Z,138.00
2023-01-19T08:13:17.563Z,157.00
2023-01-19T08:15:44.819Z,175.00
2023-01-19T08:18:11.719Z,185.25
2023-01-19T08:20:38.662Z,173.25
2023-01-19T08:23:05.573Z,192.50
2023-01-19T08:25:33.583Z,178.50
2023-01-19T08:28:00.513Z,137.00
2023-01-19T08:30:27.458Z,133.50
2023-01-19T08:32:55.068Z,150.25
2023-01-19T08:35:22.590Z,194.50
2023-01-19T08:37:49.834Z,175.75
2023-01-19T08:40:18.357Z,210.25
2023-01-19T08:42:45.644Z,223.75
2023-01-19T08:45:12.461Z,241.25
2023-01-19T08:47:39.257Z,229.00
2023-01-19T08:50:06.525Z,126.25
2023-01-19T08:52:33.345Z,118.50
2023-01-19T08:55:00.826Z,122.75
2023-01-19T08:57:27.729Z,105.00
2023-01-19T08:59:54.609Z,106.25
2023-01-19T09:02:21.557Z,95.50
2023-01-19T09:04:48.903Z,92.50
2023-01-19T09:07:15.779Z,102.75
2023-01-19T09:09:43.558Z,140.00
2023-01-19T09:12:10.344Z,86.00
2023-01-19T09:14:37.123Z,37.75
2023-01-19T09:17:04.328Z,30.00
2023-01-19T09:19:31.116Z,29.33
2023-01-19T09:21:59.734Z,18.00
2023-01-19T09:24:26.842Z,18.67
2023-01-19T09:26:53.651Z,6.67
2023-01-19T09:29:20.449Z,9.00
2023-01-19T09:31:47.217Z,17.33
2023-01-19T09:34:14.044Z,10.33
2023-01-19T09:36:40.840Z,15.67
2023-01-19T09:39:07.649Z,11.67
2023-01-19T09:41:38.768Z,17.67
2023-01-19T09:44:06.372Z,26.00
2023-01-19T09:46:41.486Z,22.33
2023-01-19T09:49:21.643Z,14.67
2023-01-19T09:51:51.044Z,15.67
2023-01-19T09:54:27.802Z,14.00
2023-01-19T09:56:54.614Z,15.67
2023-01-19T09:59:26.000Z,24.33
2023-01-19T10:02:11.252Z,12.33
2023-01-19T10:04:42.376Z,16.67
2023-01-19T10:07:20.970Z,25.00
2023-01-19T10:10:02.868Z,31.33
2023-01-19T10:12:45.913Z,38.00
2023-01-19T10:15:15.976Z,37.00
2023-01-19T10:17:51.843Z,45.00
2023-01-19T10:20:29.020Z,32.67
2023-01-19T10:22:59.409Z,26.00
2023-01-19T10:25:27.779Z,45.00
2023-01-19T10:27:55.105Z,28.33
2023-01-19T10:30:27.928Z,21.67
2023-01-19T10:32:55.287Z,35.75
2023-01-19T10:35:25.192Z,21.00
2023-01-19T10:37:59.865Z,25.33
2023-01-19T10:40:49.088Z,20.00
2023-01-19T10:43:34.574Z,30.67
2023-01-19T10:46:05.922Z,16.00
2023-01-19T10:48:42.559Z,16.00
2023-01-19T10:51:11.923Z,19.67
2023-01-19T10:53:38.795Z,24.00
2023-01-19T10:56:24.192Z,31.67
2023-01-19T10:58:51.222Z,24.33
2023-01-19T11:01:26.750Z,28.67
2023-01-19T11:03:55.592Z,24.67
2023-01-19T11:06:26.374Z,32.33
2023-01-19T11:09:10.783Z,12.67
2023-01-19T11:11:47.241Z,22.00
2023-01-19T11:14:18.254Z,16.33
2023-01-19T11:16:58.804Z,39.50
2023-01-19T11:19:31.979Z,42.75
2023-01-19T11:22:22.828Z,44.25
2023-01-19T11:24:50.269Z,48.00
2023-01-19T11:27:19.667Z,10.00
2023-01-19T11:29:57.160Z,17.00
2023-01-19T11:32:27.465Z,9.00
2023-01-19T11:34:54.319Z,6.00
2023-01-19T11:37:21.120Z,7.00
2023-01-19T11:39:57.185Z,4.00
2023-01-19T11:42:25.508Z,3.67
2023-01-19T11:45:04.306Z,9.00
2023-01-19T11:47:39.402Z,3.00
2023-01-19T11:50:12.867Z,6.00
2023-01-19T11:52:48.648Z,7.33
2023-01-19T11:55:29.012Z,8.00
2023-01-19T11:57:56.205Z,6.33
2023-01-19T12:00:26.907Z,9.00
2023-01-19T12:02:59.665Z,8.33
2023-01-19T12:05:33.310Z,9.67
2023-01-19T12:08:07.012Z,9.00
2023-01-19T12:10:41.615Z,11.00
2023-01-19T12:13:21.564Z,13.33
2023-01-19T12:16:11.407Z,14.00
2023-01-19T12:18:49.686Z,9.67
2023-01-19T12:21:17.411Z,6.00
2023-01-19T12:24:02.329Z,12.00
2023-01-19T12:27:00.493Z,13.00
2023-01-19T12:29:35.634Z,10.67
2023-01-19T12:32:14.596Z,11.33
2023-01-19T12:34:46.890Z,9.33
2023-01-19T12:37:31.532Z,12.67
2023-01-19T12:40:01.734Z,14.00
2023-01-19T12:42:29.419Z,13.67
2023-01-19T12:45:12.383Z,32.00
2023-01-19T12:47:39.825Z,31.00
2023-01-19T12:50:19.234Z,22.00
2023-01-19T12:53:03.069Z,17.33
2023-01-19T12:55:46.563Z,15.00
2023-01-19T12:58:24.541Z,19.33
2023-01-19T13:01:14.024Z,10.67
2023-01-19T13:04:01.498Z,11.00
2023-01-19T13:06:48.300Z,24.33
2023-01-19T13:09:34.242Z,8.00
2023-01-19T13:12:15.095Z,11.67
2023-01-19T13:14:44.725Z,10.00
2023-01-19T13:17:25.908Z,6.33
2023-01-19T13:20:14.986Z,2.00
2023-01-19T13:22:50.667Z,2.00
2023-01-19T13:25:35.655Z,3.33
2023-01-19T13:28:08.281Z,8.67
2023-01-19T13:30:36.850Z,6.00
2023-01-19T13:33:21.460Z,5.00
2023-01-19T13:35:59.002Z,40.25
2023-01-19T13:38:27.937Z,14.00
2023-01-19T13:40:56.402Z,14.00
2023-01-19T13:43:29.132Z,10.67
2023-01-19T13:45:56.691Z,6.00
2023-01-19T13:48:25.553Z,13.00
2023-01-19T13:51:04.984Z,11.00
2023-01-19T13:53:32.609Z,7.00
2023-01-19T13:56:09.819Z,9.00
2023-01-19T13:58:36.907Z,12.67
2023-01-19T14:01:03.739Z,23.67
2023-01-19T14:03:30.706Z,15.33
2023-01-19T14:05:57.676Z,33.25
2023-01-19T14:08:25.726Z,34.00
2023-01-19T14:10:56.307Z,39.75
2023-01-19T14:13:26.352Z,38.75
2023-01-19T14:15:56.939Z,37.50
2023-01-19T14:18:25.794Z,31.33
2023-01-19T14:21:11.382Z,37.00
2023-01-19T14:23:44.204Z,26.75
2023-01-19T14:26:39.236Z,34.75
2023-01-19T14:29:29.037Z,24.00
2023-01-19T14:32:21.953Z,34.25
2023-01-19T14:34:48.797Z,37.25
2023-01-19T14:37:30.431Z,34.00
2023-01-19T14:40:10.915Z,50.75
2023-01-19T14:42:49.844Z,49.00
2023-01-19T14:45:20.626Z,54.50
2023-01-19T14:47:58.725Z,98.25
2023-01-19T14:50:32.993Z,14.67
2023-01-19T14:53:03.540Z,27.00
2023-01-19T14:55:43.852Z,48.00
2023-01-19T14:58:15.677Z,51.75
2023-01-19T15:00:43.370Z,59.25
2023-01-19T15:03:10.198Z,59.50
2023-01-19T15:05:42.790Z,63.25
2023-01-19T15:08:15.255Z,49.50
2023-01-19T15:10:43.267Z,54.50
2023-01-19T15:13:19.191Z,75.75
2023-01-19T15:15:46.691Z,55.00
2023-01-19T15:18:17.198Z,46.50
2023-01-19T15:20:43.964Z,61.25
2023-01-19T15:23:11.763Z,13.33
2023-01-19T15:25:39.600Z,4.00
2023-01-19T15:28:14.653Z,49.25
2023-01-19T15:30:41.574Z,18.67
2023-01-19T15:33:19.682Z,107.75
2023-01-19T15:35:46.400Z,91.75
2023-01-19T15:38:13.229Z,84.75
2023-01-19T15:40:40.074Z,94.00
2023-01-19T15:43:06.827Z,125.50
2023-01-19T15:45:36.982Z,76.50
2023-01-19T15:48:09.565Z,64.50
2023-01-19T15:50:39.056Z,105.75
2023-01-19T15:53:07.136Z,138.75
2023-01-19T15:55:34.020Z,137.75
2023-01-19T15:58:03.922Z,167.50
2023-01-19T16:00:32.896Z,106.75
2023-01-19T16:03:01.722Z,63.75
2023-01-19T16:05:42.001Z,67.75
2023-01-19T16:08:10.367Z,71.50
2023-01-19T16:10:37.233Z,116.25
2023-01-19T16:13:04.292Z,109.75
2023-01-19T16:15:31.049Z,82.50
2023-01-19T16:17:58.395Z,79.00
2023-01-19T16:20:25.233Z,68.50
2023-01-19T16:22:52.359Z,92.00
2023-01-19T16:25:20.889Z,131.00
2023-01-19T16:27:47.689Z,248.25
2023-01-19T16:30:16.387Z,109.25
2023-01-19T16:32:43.186Z,118.00
2023-01-19T16:35:10.127Z,320.25
2023-01-19T16:37:36.877Z,341.75
2023-01-19T16:40:04.456Z,144.25
2023-01-19T16:42:31.249Z,116.50
2023-01-19T16:44:58.317Z,168.50
2023-01-19T16:47:25.502Z,164.50
2023-01-19T16:50:11.147Z,201.75
2023-01-19T16:52:38.772Z,252.25
2023-01-19T16:55:09.573Z,247.50
2023-01-19T16:57:39.328Z,162.00
2023-01-19T17:00:09.293Z,126.75
2023-01-19T17:02:36.420Z,138.50
2023-01-19T17:05:03.693Z,113.75
2023-01-19T17:07:30.961Z,109.25
2023-01-19T17:09:57.975Z,92.00
2023-01-19T17:12:25.523Z,100.00
2023-01-19T17:14:52.199Z,90.25
2023-01-19T17:17:19.018Z,166.50
2023-01-19T17:19:46.064Z,154.50
2023-01-19T17:22:14.353Z,196.50
2023-01-19T17:24:42.606Z,203.00
2023-01-19T17:27:09.859Z,196.25
2023-01-19T17:29:36.726Z,133.25
2023-01-19T17:32:04.053Z,163.75
2023-01-19T17:34:31.145Z,179.75
2023-01-19T17:37:03.272Z,108.50
2023-01-19T17:39:30.545Z,129.00
2023-01-19T17:41:58.036Z,129.50
2023-01-19T17:44:25.632Z,119.00
2023-01-19T17:46:52.531Z,129.25
2023-01-19T17:49:19.346Z,131.50
2023-01-19T17:51:46.412Z,170.25
2023-01-19T17:54:14.625Z,191.00
2023-01-19T17:56:41.712Z,213.75
2023-01-19T17:59:08.851Z,153.75
2023-01-19T18:01:40.623Z,143.25
2023-01-19T18:04:08.588Z,102.50
2023-01-19T18:06:36.750Z,116.50
2023-01-19T18:09:06.801Z,126.75
2023-01-19T18:11:34.367Z,143.25
2023-01-19T18:14:02.253Z,122.50
2023-01-19T18:16:30.004Z,118.25
2023-01-19T18:18:57.504Z,200.00
2023-01-19T18:21:28.287Z,176.00
2023-01-19T18:24:04.846Z,113.50
2023-01-19T18:26:34.423Z,146.75
2023-01-19T18:29:01.360Z,136.75
2023-01-19T18:31:28.371Z,149.50
2023-01-19T18:33:55.278Z,187.00
2023-01-19T18:36:22.119Z,188.25
2023-01-19T18:38:49.665Z,145.50
2023-01-19T18:41:18.664Z,85.75
2023-01-19T18:43:46.616Z,61.50
2023-01-19T18:46:14.466Z,61.25
2023-01-19T18:48:42.082Z,85.00
2023-01-19T18:51:11.278Z,55.25
2023-01-19T18:53:38.591Z,54.50
2023-01-19T18:56:06.313Z,56.50
2023-01-19T18:58:36.315Z,62.25
2023-01-19T19:01:03.223Z,60.00
2023-01-19T19:03:30.302Z,47.25
2023-01-19T19:05:57.608Z,53.75
2023-01-19T19:08:24.561Z,48.75
2023-01-19T19:10:52.058Z,53.00
2023-01-19T19:13:21.875Z,52.75
2023-01-19T19:15:50.025Z,24.25
2023-01-19T19:18:16.772Z,54.75
2023-01-19T19:20:44.605Z,50.75
2023-01-19T19:23:11.881Z,47.50
2023-01-19T19:25:39.424Z,58.50
2023-01-19T19:28:06.631Z,47.25
2023-01-19T19:31:15.736Z,37.75
2023-01-19T19:33:43.098Z,51.00
2023-01-19T19:36:12.623Z,35.50
2023-01-19T19:38:42.866Z,47.00
2023-01-19T19:41:13.090Z,40.25
2023-01-19T19:43:40.251Z,52.25
2023-01-19T19:46:10.033Z,61.00
2023-01-19T19:48:39.377Z,46.50
2023-01-19T19:51:17.972Z,47.00
2023-01-19T19:53:48.933Z,55.25
2023-01-19T19:56:21.946Z,47.25
2023-01-19T19:58:50.235Z,52.25
2023-01-19T20:01:25.310Z,57.25
2023-01-19T20:03:53.830Z,54.00
2023-01-19T20:06:23.107Z,42.75
2023-01-19T20:08:55.782Z,54.00
2023-01-19T20:11:26.559Z,44.00
2023-01-19T20:13:54.100Z,45.75
2023-01-19T20:16:22.718Z,52.50
2023-01-19T20:18:53.955Z,40.50
2023-01-19T20:21:26.569Z,44.00
2023-01-19T20:23:55.895Z,40.25
2023-01-19T20:26:26.490Z,48.75
2023-01-19T20:28:54.770Z,61.25
2023-01-19T20:31:27.177Z,45.25
2023-01-19T20:33:56.177Z,33.25
2023-01-19T20:36:24.415Z,47.00
2023-01-19T20:38:53.023Z,55.25
2023-01-19T20:41:22.691Z,47.00
2023-01-19T20:43:50.822Z,44.50
2023-01-19T20:46:18.981Z,49.25
2023-01-19T20:48:50.883Z,52.75
2023-01-19T20:51:19.530Z,63.00
2023-01-19T20:53:48.302Z,63.00
2023-01-19T20:56:15.599Z,64.75
2023-01-19T20:58:43.526Z,27.25
2023-01-19T21:01:22.706Z,44.75
2023-01-19T21:03:50.136Z,40.25
2023-01-19T21:06:19.570Z,36.75
2023-01-19T21:08:51.969Z,41.00
2023-01-19T21:11:21.328Z,30.50
2023-01-19T21:13:49.264Z,39.25
2023-01-19T21:16:16.976Z,45.00
2023-01-19T21:18:44.504Z,39.25
2023-01-19T21:21:28.435Z,43.00
2023-01-19T21:23:57.469Z,43.75
2023-01-19T21:26:25.361Z,48.25
2023-01-19T21:28:52.263Z,29.25
2023-01-19T21:31:20.960Z,36.00
2023-01-19T21:33:49.378Z,40.25
2023-01-19T21:36:16.613Z,58.75
2023-01-19T21:38:44.063Z,43.25
2023-01-19T21:41:12.814Z,67.25
2023-01-19T21:43:42.744Z,51.75
2023-01-19T21:46:29.193Z,54.25
2023-01-19T21:49:01.313Z,48.25
2023-01-19T21:51:33.664Z,42.75
2023-01-19T21:54:01.829Z,50.75
2023-01-19T21:56:30.090Z,41.25
2023-01-19T21:58:58.014Z,48.50
2023-01-19T22:01:25.263Z,59.00
2023-01-19T22:03:56.858Z,57.50
2023-01-19T22:06:25.532Z,42.50
2023-01-19T22:08:52.759Z,52.25
2023-01-19T22:11:20.756Z,51.75
2023-01-19T22:13:47.938Z,44.75
2023-01-19T22:16:17.442Z,39.50
2023-01-19T22:18:47.385Z,39.25
2023-01-19T22:21:19.670Z,35.25
2023-01-19T22:23:55.435Z,23.25
2023-01-19T22:26:22.659Z,20.75
2023-01-19T22:28:54.720Z,10.75
2023-01-19T22:31:24.606Z,15.00
2023-01-19T22:33:52.125Z,36.75
2023-01-19T22:36:23.579Z,35.50
2023-01-19T22:38:52.869Z,29.75
2023-01-19T22:41:25.029Z,46.25
2023-01-19T22:43:55.436Z,42.25
2023-01-19T22:46:25.367Z,6.00
2023-01-19T22:48:53.587Z,4.75
2023-01-19T22:51:21.810Z,20.75
2023-01-19T22:53:48.862Z,36.50
2023-01-19T22:56:20.597Z,16.25
2023-01-19T22:58:48.355Z,31.75
2023-01-19T23:01:18.112Z,17.75
2023-01-19T23:03:46.223Z,11.00
2023-01-19T23:06:16.258Z,11.00
2023-01-19T23:08:44.901Z,10.75
2023-01-19T23:11:14.437Z,25.25
2023-01-19T23:13:41.932Z,47.00
2023-01-19T23:16:10.804Z,31.25
2023-01-19T23:18:38.096Z,5.25
2023-01-19T23:21:11.012Z,44.00
2023-01-19T23:23:37.880Z,5.50
2023-01-19T23:26:16.231Z,44.75
2023-01-19T23:28:44.354Z,7.00
2023-01-19T23:31:18.476Z,9.25
2023-01-19T23:33:45.336Z,9.25
2023-01-19T23:36:13.141Z,9.00
2023-01-19T23:38:41.259Z,9.50
2023-01-19T23:41:09.036Z,6.00
2023-01-19T23:43:36.408Z,9.25
2023-01-19T23:46:08.695Z,5.75
2023-01-19T23:48:36.100Z,7.25
2023-01-19T23:51:12.510Z,8.00
2023-01-19T23:53:41.059Z,6.00
2023-01-19T23:56:24.054Z,5.00
2023-01-19T23:58:59.811Z,5.00
